createdAt,value
2022-08-22T00:00:15.386Z,100851.78
2022-08-22T00:02:55.205Z,100847.25
2022-08-22T00:03:08.534Z,100813.41
2022-08-22T00:03:10.106Z,100837.03
2022-08-22T00:03:17.501Z,100863.00
2022-08-22T00:05:51.929Z,100852.84
2022-08-22T00:08:30.789Z,100849.00
2022-08-22T00:11:05.458Z,100821.94
2022-08-22T00:14:01.648Z,100843.25
2022-08-22T00:16:42.080Z,100842.81
2022-08-22T00:19:29.699Z,100815.56
2022-08-22T00:22:02.468Z,100849.75
2022-08-22T00:24:39.183Z,100846.91
2022-08-22T00:27:15.215Z,100850.72
2022-08-22T00:29:51.820Z,100850.91
2022-08-22T00:32:41.133Z,100847.63
2022-08-22T00:35:22.132Z,100857.13
2022-08-22T00:38:15.211Z,100859.41
2022-08-22T00:41:00.225Z,100853.31
2022-08-22T00:44:00.976Z,100849.41
2022-08-22T00:46:44.106Z,100844.94
2022-08-22T00:49:13.704Z,100847.00
2022-08-22T00:52:13.662Z,100841.44
2022-08-22T00:54:52.186Z,100836.28
2022-08-22T00:57:40.045Z,100839.75
2022-08-22T01:00:23.411Z,100845.03
2022-08-22T01:03:11.314Z,100837.16
2022-08-22T01:05:40.886Z,100837.28
2022-08-22T01:08:32.361Z,100837.91
2022-08-22T01:10:58.808Z,100838.19
2022-08-22T01:13:57.780Z,100836.06
2022-08-22T01:16:54.740Z,100840.56
2022-08-22T01:19:44.397Z,100838.72
2022-08-22T01:22:32.720Z,100843.81
2022-08-22T01:25:26.555Z,100849.91
2022-08-22T01:28:05.387Z,100847.28
2022-08-22T01:31:03.301Z,100847.69
2022-08-22T01:34:01.633Z,100841.88
2022-08-22T01:36:49.846Z,100841.97
2022-08-22T01:39:34.221Z,100837.09
2022-08-22T01:42:16.099Z,100835.94
2022-08-22T01:45:14.945Z,100847.78
2022-08-22T01:47:54.971Z,100813.13
2022-08-22T01:50:23.694Z,100839.81
2022-08-22T01:52:50.925Z,100840.63
2022-08-22T01:55:30.432Z,100841.50
2022-08-22T01:57:59.889Z,100850.38
2022-08-22T02:00:34.618Z,100825.00
2022-08-22T02:03:08.282Z,100842.66
2022-08-22T02:05:40.302Z,100845.97
2022-08-22T02:08:31.471Z,100848.75
2022-08-22T02:11:06.341Z,100854.25
2022-08-22T02:13:46.453Z,100859.50
2022-08-22T02:16:38.098Z,100843.38
2022-08-22T02:19:13.785Z,100852.38
2022-08-22T02:21:42.692Z,100852.91
2022-08-22T02:24:24.476Z,100846.06
2022-08-22T02:27:21.649Z,100847.44
2022-08-22T02:30:00.423Z,100849.81
2022-08-22T02:32:35.606Z,100847.81
2022-08-22T02:35:18.444Z,100841.84
2022-08-22T02:38:03.719Z,100841.34
2022-08-22T02:40:32.235Z,100836.31
2022-08-22T02:43:01.576Z,100838.78
2022-08-22T02:45:38.979Z,100842.69
2022-08-22T02:48:17.718Z,100802.25
2022-08-22T02:51:01.751Z,100848.28
2022-08-22T02:53:55.863Z,100842.75
2022-08-22T02:56:39.432Z,100838.06
2022-08-22T02:59:37.119Z,100841.13
2022-08-22T03:02:27.705Z,100838.75
2022-08-22T03:05:16.322Z,100806.50
2022-08-22T03:07:59.990Z,100842.75
2022-08-22T03:10:30.349Z,100838.94
2022-08-22T03:13:16.530Z,100818.59
2022-08-22T03:15:48.605Z,100831.34
2022-08-22T03:18:40.426Z,100819.59
2022-08-22T03:21:15.820Z,100819.28
2022-08-22T03:23:43.710Z,100822.97
2022-08-22T03:26:29.621Z,100810.19
2022-08-22T03:29:03.382Z,100808.19
2022-08-22T03:31:31.262Z,100818.59
2022-08-22T03:34:23.694Z,100817.75
2022-08-22T03:37:14.890Z,100820.59
2022-08-22T03:39:44.494Z,100824.63
2022-08-22T03:42:34.522Z,100822.59
2022-08-22T03:45:35.337Z,100818.94
2022-08-22T03:48:38.778Z,100815.91
2022-08-22T03:51:26.990Z,100816.91
2022-08-22T03:54:12.158Z,100819.78
2022-08-22T03:57:29.946Z,100817.63
2022-08-22T04:00:38.238Z,100814.53
2022-08-22T04:03:05.501Z,100819.44
2022-08-22T04:05:54.273Z,100822.78
2022-08-22T04:08:26.278Z,100819.59
2022-08-22T04:11:03.770Z,100824.59
2022-08-22T04:13:36.422Z,100819.91
2022-08-22T04:16:14.623Z,100821.59
2022-08-22T04:19:02.967Z,100821.59
2022-08-22T04:21:32.877Z,100817.25
2022-08-22T04:24:11.582Z,100821.44
2022-08-22T04:26:41.556Z,100821.13
2022-08-22T04:29:25.562Z,100823.13
2022-08-22T04:32:20.743Z,100823.63
2022-08-22T04:34:52.248Z,100818.94
2022-08-22T04:37:31.594Z,100821.28
2022-08-22T04:40:15.836Z,100814.41
2022-08-22T04:42:47.242Z,100819.09
2022-08-22T04:45:24.457Z,100818.09
2022-08-22T04:48:19.249Z,100819.78
2022-08-22T04:51:12.103Z,100820.94
2022-08-22T04:54:06.651Z,100833.03
2022-08-22T04:56:43.805Z,100829.03
2022-08-22T04:59:16.811Z,100831.22
2022-08-22T05:01:43.344Z,100809.38
2022-08-22T05:04:14.331Z,100788.53
2022-08-22T05:06:46.063Z,100828.66
2022-08-22T05:09:17.204Z,100824.31
2022-08-22T05:11:46.388Z,100798.94
2022-08-22T05:14:27.987Z,100827.34
2022-08-22T05:16:56.518Z,100834.06
2022-08-22T05:19:37.309Z,100828.69
2022-08-22T05:22:13.709Z,100833.56
2022-08-22T05:24:43.485Z,100814.53
2022-08-22T05:27:13.663Z,100833.31
2022-08-22T05:29:43.348Z,100827.84
2022-08-22T05:32:20.916Z,100825.47
2022-08-22T05:34:48.348Z,100839.03
2022-08-22T05:37:24.858Z,100841.13
2022-08-22T05:39:55.163Z,100838.44
2022-08-22T05:42:34.232Z,100834.44
2022-08-22T05:45:02.665Z,100842.03
2022-08-22T05:47:47.909Z,100838.94
2022-08-22T05:50:46.398Z,100841.16
2022-08-22T05:53:19.081Z,100845.75
2022-08-22T05:56:05.062Z,100837.19
2022-08-22T05:58:49.847Z,100848.19
2022-08-22T06:01:39.216Z,100851.97
2022-08-22T06:04:11.794Z,100846.97
2022-08-22T06:07:06.983Z,100793.81
2022-08-22T06:09:56.048Z,100850.31
2022-08-22T06:12:39.503Z,100861.22
2022-08-22T06:15:23.230Z,100855.00
2022-08-22T06:18:05.061Z,100854.44
2022-08-22T06:20:36.095Z,100861.91
2022-08-22T06:23:04.008Z,100867.34
2022-08-22T06:25:33.731Z,100864.69
2022-08-22T06:28:07.857Z,100868.09
2022-08-22T06:30:35.695Z,100872.13
2022-08-22T06:33:07.209Z,100853.75
2022-08-22T06:36:08.294Z,100824.25
2022-08-22T06:39:11.496Z,100868.44
2022-08-22T06:41:49.397Z,100849.28
2022-08-22T06:44:20.016Z,100862.19
2022-08-22T06:46:48.155Z,100873.19
2022-08-22T06:49:15.462Z,100827.06
2022-08-22T06:51:42.403Z,100846.22
2022-08-22T06:54:16.306Z,100869.63
2022-08-22T06:56:45.611Z,100872.44
2022-08-22T06:59:17.927Z,100867.69
2022-08-22T07:04:25.951Z,100872.31
2022-08-22T07:06:54.848Z,100871.00
2022-08-22T07:09:38.855Z,100870.25
2022-08-22T07:12:12.078Z,100867.72
2022-08-22T07:14:42.911Z,100870.75
2022-08-22T07:17:17.109Z,100878.38
2022-08-22T07:19:49.514Z,100871.47
2022-08-22T07:22:24.117Z,100871.94
2022-08-22T07:24:54.075Z,100869.66
2022-08-22T07:27:30.813Z,100860.50
2022-08-22T07:30:04.462Z,100863.81
2022-08-22T07:32:43.167Z,100868.69
2022-08-22T07:35:33.558Z,100859.44
2022-08-22T07:38:16.895Z,100826.22
2022-08-22T07:40:46.703Z,100865.44
2022-08-22T07:43:38.124Z,100868.41
2022-08-22T07:46:23.084Z,100870.72
2022-08-22T07:49:34.488Z,100851.84
2022-08-22T07:52:10.444Z,100864.41
2022-08-22T07:54:43.091Z,100860.03
2022-08-22T07:57:14.803Z,100864.69
2022-08-22T07:59:52.016Z,100871.75
2022-08-22T08:02:19.254Z,100876.31
2022-08-22T08:04:49.005Z,100866.22
2022-08-22T08:07:17.881Z,100880.16
2022-08-22T08:09:50.043Z,100876.38
2022-08-22T08:12:19.492Z,100862.28
2022-08-22T08:14:50.112Z,100840.94
2022-08-22T08:17:32.262Z,100871.38
2022-08-22T08:20:02.211Z,100856.94
2022-08-22T08:22:29.771Z,100865.94
2022-08-22T08:24:58.677Z,100858.94
2022-08-22T08:27:59.973Z,100831.53
2022-08-22T08:30:40.400Z,100853.25
2022-08-22T08:33:25.528Z,100829.78
2022-08-22T08:36:02.130Z,100838.50
2022-08-22T08:38:32.972Z,100842.59
2022-08-22T08:41:26.049Z,100846.00
2022-08-22T08:44:01.815Z,100841.63
2022-08-22T08:46:55.813Z,100844.94
2022-08-22T08:49:42.976Z,100819.75
2022-08-22T08:52:18.851Z,100832.13
2022-08-22T08:54:55.595Z,100826.25
2022-08-22T08:57:44.108Z,100824.97
2022-08-22T09:00:20.889Z,100819.44
2022-08-22T09:03:07.881Z,100818.59
2022-08-22T09:06:13.643Z,100814.25
2022-08-22T09:08:57.617Z,100803.00
2022-08-22T09:11:44.509Z,100799.25
2022-08-22T09:14:37.560Z,100794.69
2022-08-22T09:17:16.087Z,100801.41
2022-08-22T09:20:02.875Z,100798.41
2022-08-22T09:23:17.753Z,100796.34
2022-08-22T09:25:53.173Z,100790.19
2022-08-22T09:28:41.162Z,100778.84
2022-08-22T09:31:32.779Z,100782.59
2022-08-22T09:34:35.780Z,100784.72
2022-08-22T09:37:02.745Z,100782.38
2022-08-22T09:39:49.483Z,100741.72
2022-08-22T09:42:38.078Z,100773.31
2022-08-22T09:45:38.764Z,100769.75
2022-08-22T09:48:15.779Z,100759.59
2022-08-22T09:51:31.341Z,100753.91
2022-08-22T09:54:07.291Z,100755.72
2022-08-22T09:57:01.411Z,100749.22
2022-08-22T09:59:50.873Z,100738.91
2022-08-22T10:02:30.260Z,100728.56
2022-08-22T10:05:40.571Z,100725.34
2022-08-22T10:08:28.391Z,100719.47
2022-08-22T10:11:09.917Z,100718.81
2022-08-22T10:14:00.806Z,100719.97
2022-08-22T10:16:43.545Z,100720.09
2022-08-22T10:19:31.987Z,100721.97
2022-08-22T10:22:22.041Z,100714.66
2022-08-22T10:25:00.674Z,100709.38
2022-08-22T10:27:52.536Z,100694.06
2022-08-22T10:30:22.430Z,100684.88
2022-08-22T10:33:14.473Z,100673.31
2022-08-22T10:35:52.243Z,100692.09
2022-08-22T10:38:28.716Z,100691.94
2022-08-22T10:41:09.414Z,100671.50
2022-08-22T10:43:59.067Z,100684.66
2022-08-22T10:46:42.227Z,100682.13
2022-08-22T10:49:37.026Z,100672.53
2022-08-22T10:52:16.197Z,100668.59
2022-08-22T10:55:12.753Z,100674.38
2022-08-22T10:58:02.148Z,100660.38
2022-08-22T11:00:33.391Z,100666.72
2022-08-22T11:03:09.919Z,100667.03
2022-08-22T11:05:43.945Z,100655.88
2022-08-22T11:08:35.222Z,100662.28
2022-08-22T11:11:39.798Z,100660.84
2022-08-22T11:14:13.406Z,100654.72
2022-08-22T11:17:02.761Z,100644.97
2022-08-22T11:20:22.271Z,100653.22
2022-08-22T11:23:12.494Z,100655.66
2022-08-22T11:25:52.449Z,100649.53
2022-08-22T11:28:58.010Z,100647.63
2022-08-22T11:32:10.046Z,100626.94
2022-08-22T11:35:01.212Z,100632.88
2022-08-22T11:37:56.368Z,100630.81
2022-08-22T11:40:38.561Z,100629.09
2022-08-22T11:43:18.160Z,100623.88
2022-08-22T11:45:51.470Z,100627.88
2022-08-22T11:48:25.394Z,100621.59
2022-08-22T11:51:24.958Z,100621.47
2022-08-22T11:54:12.898Z,100616.41
2022-08-22T11:56:45.190Z,100612.59
2022-08-22T11:59:22.572Z,100615.72
2022-08-22T12:01:55.091Z,100615.53
2022-08-22T12:04:33.794Z,100578.06
2022-08-22T12:07:20.969Z,100589.44
2022-08-22T12:09:52.007Z,100605.34
2022-08-22T12:12:48.266Z,100603.78
2022-08-22T12:15:36.142Z,100602.53
2022-08-22T12:18:40.440Z,100606.38
2022-08-22T12:21:36.831Z,100616.81
2022-08-22T12:24:23.471Z,100604.91
2022-08-22T12:26:49.947Z,100609.59
2022-08-22T12:29:34.138Z,100607.94
2022-08-22T12:32:28.289Z,100614.34
2022-08-22T12:35:03.731Z,100600.34
2022-08-22T12:38:00.015Z,100570.53
2022-08-22T12:40:29.949Z,100602.00
2022-08-22T12:43:12.838Z,100600.41
2022-08-22T12:45:50.734Z,100577.59
2022-08-22T12:48:29.778Z,100596.47
2022-08-22T12:51:20.578Z,100590.97
2022-08-22T12:53:53.080Z,100594.88
2022-08-22T12:56:29.483Z,100588.81
2022-08-22T12:59:08.142Z,100583.78
2022-08-22T13:01:43.459Z,100589.28
2022-08-22T13:04:32.390Z,100594.22
2022-08-22T13:07:30.574Z,100590.94
2022-08-22T13:10:21.008Z,100588.13
2022-08-22T13:12:50.718Z,100581.19
2022-08-22T13:15:53.583Z,100582.06
2022-08-22T13:18:30.221Z,100580.38
2022-08-22T13:21:00.474Z,100587.34
2022-08-22T13:23:39.964Z,100582.13
2022-08-22T13:26:34.536Z,100585.66
2022-08-22T13:29:27.195Z,100585.97
2022-08-22T13:32:00.206Z,100591.47
2022-08-22T13:34:40.587Z,100586.53
2022-08-22T13:37:26.243Z,100587.66
2022-08-22T13:39:55.991Z,100544.13
2022-08-22T13:42:27.871Z,100575.53
2022-08-22T13:45:02.503Z,100585.41
2022-08-22T13:47:31.694Z,100581.22
2022-08-22T13:50:19.170Z,100583.19
2022-08-22T13:52:55.091Z,100595.13
2022-08-22T13:55:31.081Z,100583.72
2022-08-22T13:58:19.174Z,100592.66
2022-08-22T14:01:00.956Z,100576.31
2022-08-22T14:03:57.984Z,100580.47
2022-08-22T14:06:41.332Z,100579.38
2022-08-22T14:09:44.559Z,100576.88
2022-08-22T14:12:50.908Z,100578.72
2022-08-22T14:15:33.066Z,100582.13
2022-08-22T14:18:30.091Z,100573.31
2022-08-22T14:21:26.674Z,100582.13
2022-08-22T14:23:57.488Z,100565.63
2022-08-22T14:26:33.242Z,100568.91
2022-08-22T14:29:08.266Z,100578.22
2022-08-22T14:31:35.762Z,100573.66
2022-08-22T14:34:10.452Z,100560.66
2022-08-22T14:36:55.178Z,100576.63
2022-08-22T14:39:38.454Z,100571.44
2022-08-22T14:42:19.584Z,100573.31
2022-08-22T14:45:08.468Z,100579.28
2022-08-22T14:48:09.938Z,100564.88
2022-08-22T14:50:43.811Z,100574.31
2022-08-22T14:53:11.953Z,100574.94
2022-08-22T14:55:40.785Z,100550.25
2022-08-22T14:58:26.435Z,100574.06
2022-08-22T15:00:56.074Z,100593.69
2022-08-22T15:03:33.920Z,100592.38
2022-08-22T15:06:02.072Z,100588.28
2022-08-22T15:08:30.846Z,100587.53
2022-08-22T15:11:08.443Z,100590.56
2022-08-22T15:13:36.637Z,100585.28
2022-08-22T15:16:17.783Z,100578.53
2022-08-22T15:18:51.762Z,100574.00
2022-08-22T15:21:24.285Z,100571.63
2022-08-22T15:23:54.533Z,100555.72
2022-08-22T15:26:34.191Z,100566.44
2022-08-22T15:29:09.936Z,100572.53
2022-08-22T15:31:39.682Z,100563.34
2022-08-22T15:34:21.339Z,100555.97
2022-08-22T15:37:01.448Z,100573.56
2022-08-22T15:39:57.551Z,100542.66
2022-08-22T15:42:31.892Z,100560.63
2022-08-22T15:44:59.378Z,100562.44
2022-08-22T15:47:41.442Z,100560.25
2022-08-22T15:50:29.177Z,100554.94
2022-08-22T15:53:09.040Z,100568.69
2022-08-22T15:55:37.005Z,100544.88
2022-08-22T15:58:07.431Z,100562.69
2022-08-22T16:00:43.281Z,100534.75
2022-08-22T16:03:32.113Z,100559.84
2022-08-22T16:06:07.672Z,100559.44
2022-08-22T16:08:43.962Z,100548.53
2022-08-22T16:11:33.660Z,100549.69
2022-08-22T16:14:24.834Z,100550.41
2022-08-22T16:16:54.854Z,100552.66
2022-08-22T16:19:25.367Z,100547.22
2022-08-22T16:21:51.888Z,100556.19
2022-08-22T16:24:18.353Z,100559.06
2022-08-22T16:26:46.028Z,100542.13
2022-08-22T16:29:18.013Z,100553.38
2022-08-22T16:31:48.007Z,100549.63
2022-08-22T16:34:17.750Z,100551.72
2022-08-22T16:37:08.707Z,100535.09
2022-08-22T16:39:47.815Z,100548.72
2022-08-22T16:42:17.061Z,100543.88
2022-08-22T16:45:02.618Z,100545.75
2022-08-22T16:47:41.462Z,100546.94
2022-08-22T16:50:23.310Z,100553.84
2022-08-22T16:52:52.849Z,100545.63
2022-08-22T16:55:28.565Z,100554.34
2022-08-22T16:58:14.107Z,100549.44
2022-08-22T17:00:49.866Z,100547.59
2022-08-22T17:03:19.365Z,100551.22
2022-08-22T17:05:45.982Z,100555.03
2022-08-22T17:08:25.673Z,100532.75
2022-08-22T17:11:17.233Z,100551.53
2022-08-22T17:13:46.950Z,100546.50
2022-08-22T17:16:35.388Z,100546.38
2022-08-22T17:19:25.343Z,100549.06
2022-08-22T17:21:57.400Z,100546.06
2022-08-22T17:24:35.561Z,100547.44
2022-08-22T17:27:19.542Z,100547.06
2022-08-22T17:30:10.477Z,100546.53
2022-08-22T17:32:59.962Z,100553.19
2022-08-22T17:35:40.602Z,100542.91
2022-08-22T17:38:19.258Z,100544.88
2022-08-22T17:40:59.398Z,100545.94
2022-08-22T17:43:48.714Z,100552.19
2022-08-22T17:46:34.072Z,100561.94
2022-08-22T17:49:25.576Z,100563.47
2022-08-22T17:52:01.031Z,100558.53
2022-08-22T17:54:33.885Z,100556.66
2022-08-22T17:57:22.415Z,100556.53
2022-08-22T17:59:56.594Z,100556.97
2022-08-22T18:02:47.978Z,100557.91
2022-08-22T18:05:21.821Z,100558.78
2022-08-22T18:07:48.346Z,100569.50
2022-08-22T18:10:14.899Z,100569.47
2022-08-22T18:12:44.741Z,100575.31
2022-08-22T18:15:20.915Z,100564.81
2022-08-22T18:18:17.849Z,100572.06
2022-08-22T18:20:50.157Z,100575.16
2022-08-22T18:23:40.111Z,100578.00
2022-08-22T18:26:27.522Z,100579.09
2022-08-22T18:28:55.388Z,100580.91
2022-08-22T18:31:46.443Z,100588.47
2022-08-22T18:34:40.777Z,100586.13
2022-08-22T18:37:17.097Z,100586.13
2022-08-22T18:39:51.631Z,100589.88
2022-08-22T18:42:31.003Z,100590.81
2022-08-22T18:44:57.660Z,100589.88
2022-08-22T18:47:35.677Z,100591.53
2022-08-22T18:50:30.628Z,100597.94
2022-08-22T18:52:57.800Z,100592.56
2022-08-22T18:55:30.949Z,100596.34
2022-08-22T18:58:17.643Z,100599.72
2022-08-22T19:01:09.466Z,100592.03
2022-08-22T19:03:57.528Z,100600.53
2022-08-22T19:06:42.982Z,100597.19
2022-08-22T19:09:27.172Z,100599.25
2022-08-22T19:12:23.046Z,100601.75
2022-08-22T19:15:11.429Z,100603.41
2022-08-22T19:18:04.229Z,100610.75
2022-08-22T19:20:51.883Z,100594.06
2022-08-22T19:23:43.406Z,100618.03
2022-08-22T19:26:37.959Z,100609.47
2022-08-22T19:29:30.186Z,100613.22
2022-08-22T19:32:01.961Z,100605.66
2022-08-22T19:34:32.619Z,100613.88
2022-08-22T19:37:32.049Z,100620.44
2022-08-22T19:40:07.757Z,100614.63
2022-08-22T19:42:36.908Z,100599.44
2022-08-22T19:45:26.560Z,100614.19
2022-08-22T19:48:10.513Z,100622.03
2022-08-22T19:50:39.146Z,100622.03
2022-08-22T19:53:11.670Z,100622.34
2022-08-22T19:55:38.362Z,100619.22
2022-08-22T19:58:31.814Z,100599.44
2022-08-22T20:01:20.830Z,100602.75
2022-08-22T20:03:53.154Z,100619.97
2022-08-22T20:06:43.446Z,100596.78
2022-08-22T20:09:32.053Z,100621.81
2022-08-22T20:12:28.211Z,100628.72
2022-08-22T20:14:55.415Z,100628.13
2022-08-22T20:17:25.084Z,100626.84
2022-08-22T20:20:17.235Z,100622.09
2022-08-22T20:22:49.703Z,100602.97
2022-08-22T20:25:42.066Z,100627.69
2022-08-22T20:28:25.033Z,100624.34
2022-08-22T20:30:57.688Z,100624.34
2022-08-22T20:33:30.161Z,100611.88
2022-08-22T20:35:59.567Z,100590.13
2022-08-22T20:38:39.825Z,100617.75
2022-08-22T20:41:22.843Z,100619.97
2022-08-22T20:43:53.498Z,100617.53
2022-08-22T20:46:53.577Z,100622.41
2022-08-22T20:49:28.616Z,100622.00
2022-08-22T20:52:07.745Z,100618.53
2022-08-22T20:54:40.659Z,100621.25
2022-08-22T20:57:17.081Z,100617.19
2022-08-22T21:00:12.500Z,100612.03
2022-08-22T21:02:42.663Z,100611.34
2022-08-22T21:05:22.397Z,100604.34
2022-08-22T21:08:06.357Z,100606.59
2022-08-22T21:10:54.620Z,100614.06
2022-08-22T21:13:39.340Z,100618.22
2022-08-22T21:16:17.035Z,100609.88
2022-08-22T21:18:46.180Z,100588.19
2022-08-22T21:21:20.523Z,100617.22
2022-08-22T21:24:01.039Z,100612.47
2022-08-22T21:26:30.907Z,100615.00
2022-08-22T21:29:12.843Z,100613.78
2022-08-22T21:31:48.843Z,100598.13
2022-08-22T21:34:28.587Z,100616.63
2022-08-22T21:36:59.530Z,100607.94
2022-08-22T21:39:37.289Z,100611.72
2022-08-22T21:42:03.786Z,100609.84
2022-08-22T21:44:40.895Z,100609.38
2022-08-22T21:47:30.589Z,100582.47
2022-08-22T21:50:18.815Z,100607.13
2022-08-22T21:53:02.537Z,100605.81
2022-08-22T21:55:29.066Z,100609.38
2022-08-22T21:58:35.149Z,100608.41
2022-08-22T22:01:03.992Z,100609.66
2022-08-22T22:03:36.686Z,100607.44
2022-08-22T22:06:05.543Z,100610.94
2022-08-22T22:08:33.224Z,100610.38
2022-08-22T22:11:02.476Z,100619.84
2022-08-22T22:13:31.477Z,100611.84
2022-08-22T22:15:58.215Z,100614.34
2022-08-22T22:18:27.169Z,100618.53
2022-08-22T22:20:54.727Z,100601.84
2022-08-22T22:23:22.457Z,100608.94
2022-08-22T22:25:50.933Z,100614.81
2022-08-22T22:28:24.989Z,100615.88
2022-08-22T22:30:53.303Z,100614.09
2022-08-22T22:33:22.893Z,100591.13
2022-08-22T22:35:50.339Z,100601.28
2022-08-22T22:38:20.630Z,100616.06
2022-08-22T22:40:50.176Z,100624.22
2022-08-22T22:43:16.929Z,100620.44
2022-08-22T22:45:43.461Z,100615.78
2022-08-22T22:48:10.258Z,100599.47
2022-08-22T22:50:40.611Z,100623.19
2022-08-22T22:53:08.116Z,100587.41
2022-08-22T22:55:36.501Z,100588.69
2022-08-22T22:58:08.372Z,100614.97
2022-08-22T23:00:37.182Z,100623.31
2022-08-22T23:03:06.137Z,100618.94
2022-08-22T23:05:33.551Z,100612.72
2022-08-22T23:08:01.015Z,100593.28
2022-08-22T23:10:30.084Z,100623.56
2022-08-22T23:12:56.874Z,100628.81
2022-08-22T23:15:23.924Z,100637.59
2022-08-22T23:17:50.492Z,100644.13
2022-08-22T23:20:17.126Z,100652.13
2022-08-22T23:22:50.452Z,100648.28
2022-08-22T23:25:17.057Z,100647.72
2022-08-22T23:27:43.867Z,100655.44
2022-08-22T23:30:11.684Z,100647.28
2022-08-22T23:32:38.746Z,100654.59
2022-08-22T23:35:05.707Z,100652.00
2022-08-22T23:37:32.279Z,100615.69
2022-08-22T23:39:58.875Z,100633.56
2022-08-22T23:42:25.641Z,100635.19
2022-08-22T23:44:52.228Z,100625.59
2022-08-22T23:47:18.770Z,100630.03
2022-08-22T23:49:45.716Z,100597.16
2022-08-22T23:52:13.277Z,100616.69
2022-08-22T23:54:40.430Z,100591.44
2022-08-22T23:57:11.974Z,100631.69
2022-08-22T23:59:46.212Z,100623.13
